Brownsboro, Alabama
Current Conditions -  °F | °C
As of 2:15 PM on Thursday 30 Oct 2014 (Local Time) from KMDQ Reporting Station
Clear Clear  
Wind Chill: 63°   Ceiling: Unl
Heat Index: 63°   Visibility: 10mi
Dew Point: 32°   Wind: 8mph
Humidity: 32%   Direction: 350°N
Pressure: 30.06"   Gusts: NA
Location:  34.75°N, 86.44°W
Report Text: KMDQ 301915Z AUTO 35007KT 10SM CLR 17/00 A3006 RMK AO2
Loading
Personal Weather Stations






























Interactive Weather Map
Tropical Storm Tracking
New forecast layout! Learn more

10-Day Weather Forecast

Advertisements
Track Severe Weather on mobile